createdAt,value
2017-09-07T00:02:26.385Z,15.30
2017-09-07T00:04:54.044Z,15.40
2017-09-07T00:07:21.748Z,15.30
2017-09-07T00:09:49.399Z,15.40
2017-09-07T00:12:17.104Z,15.30
2017-09-07T00:14:44.760Z,15.40
2017-09-07T00:17:12.432Z,15.30
2017-09-07T00:20:12.320Z,15.10
2017-09-07T00:22:40.026Z,15.10
2017-09-07T00:25:08.457Z,15.20
2017-09-07T00:27:36.154Z,15.20
2017-09-07T00:30:04.632Z,15.00
2017-09-07T00:32:33.071Z,15.00
2017-09-07T00:35:00.775Z,15.00
2017-09-07T00:37:29.208Z,15.10
2017-09-07T00:39:56.926Z,15.10
2017-09-07T00:42:24.586Z,15.10
2017-09-07T00:44:52.355Z,15.10
2017-09-07T00:47:20.015Z,15.10
2017-09-07T00:49:47.764Z,15.00
2017-09-07T00:52:16.260Z,15.00
2017-09-07T00:54:44.036Z,15.00
2017-09-07T00:57:11.767Z,15.10
2017-09-07T00:59:39.499Z,15.10
2017-09-07T01:02:07.171Z,15.20
2017-09-07T01:04:35.659Z,15.20
2017-09-07T01:07:04.090Z,15.20
2017-09-07T01:09:31.812Z,15.20
2017-09-07T01:11:59.487Z,15.20
2017-09-07T01:14:27.234Z,15.20
2017-09-07T01:16:54.890Z,15.10
2017-09-07T01:19:22.675Z,15.10
2017-09-07T01:21:50.424Z,15.10
2017-09-07T01:24:18.199Z,15.20
2017-09-07T01:26:45.891Z,15.20
2017-09-07T01:29:13.600Z,15.10
2017-09-07T01:31:41.318Z,15.10
2017-09-07T01:34:08.976Z,15.20
2017-09-07T01:36:36.696Z,15.20
2017-09-07T01:39:04.420Z,15.30
2017-09-07T01:41:32.888Z,15.30
2017-09-07T01:44:01.319Z,15.20
2017-09-07T01:46:29.027Z,15.20
2017-09-07T01:48:57.466Z,15.30
2017-09-07T01:51:25.179Z,15.30
2017-09-07T01:53:53.607Z,15.30
2017-09-07T01:56:21.340Z,15.20
2017-09-07T01:58:48.996Z,15.20
2017-09-07T02:01:16.768Z,15.20
2017-09-07T02:03:44.476Z,15.20
2017-09-07T02:06:13.008Z,15.20
2017-09-07T02:08:40.716Z,15.20
2017-09-07T02:11:08.428Z,15.20
2017-09-07T02:13:36.087Z,15.10
2017-09-07T02:16:03.805Z,15.10
2017-09-07T02:18:32.234Z,15.20
2017-09-07T02:20:59.941Z,15.10
2017-09-07T02:23:28.385Z,15.00
2017-09-07T02:25:56.093Z,15.00
2017-09-07T02:28:23.835Z,15.00
2017-09-07T02:30:52.272Z,15.00
2017-09-07T02:33:19.983Z,15.00
2017-09-07T02:35:48.408Z,14.90
2017-09-07T02:38:16.115Z,14.90
2017-09-07T02:40:43.776Z,14.90
2017-09-07T02:43:12.252Z,14.90
2017-09-07T02:45:40.687Z,14.80
2017-09-07T02:48:08.395Z,14.80
2017-09-07T02:50:36.069Z,15.00
2017-09-07T02:53:03.777Z,15.00
2017-09-07T02:55:31.456Z,14.90
2017-09-07T02:57:59.163Z,14.90
2017-09-07T03:00:26.827Z,14.90
2017-09-07T03:02:54.536Z,14.90
2017-09-07T03:05:22.203Z,14.90
2017-09-07T03:07:50.712Z,14.70
2017-09-07T03:10:18.420Z,14.70
2017-09-07T03:12:46.124Z,14.80
2017-09-07T03:15:13.783Z,14.70
2017-09-07T03:17:41.485Z,14.60
2017-09-07T03:20:09.154Z,14.70
2017-09-07T03:22:36.875Z,14.70
2017-09-07T03:25:04.537Z,14.70
2017-09-07T03:27:32.199Z,14.70
2017-09-07T03:29:59.913Z,14.70
2017-09-07T03:32:27.577Z,14.60
2017-09-07T03:34:55.289Z,14.80
2017-09-07T03:37:23.044Z,14.70
2017-09-07T03:39:50.796Z,14.70
2017-09-07T03:42:18.472Z,14.70
2017-09-07T03:44:46.191Z,14.70
2017-09-07T03:47:14.634Z,14.60
2017-09-07T03:49:42.343Z,14.60
2017-09-07T03:52:10.772Z,14.80
2017-09-07T03:54:38.504Z,14.70
2017-09-07T03:57:06.179Z,14.70
2017-09-07T03:59:33.879Z,14.70
2017-09-07T04:02:01.547Z,14.60
2017-09-07T04:04:29.268Z,14.60
2017-09-07T04:06:56.923Z,14.60
2017-09-07T04:09:24.631Z,14.50
2017-09-07T04:11:53.060Z,14.50
2017-09-07T04:14:20.764Z,14.50
2017-09-07T04:16:48.440Z,14.50
2017-09-07T04:19:16.169Z,14.40
2017-09-07T04:21:43.852Z,14.40
2017-09-07T04:24:12.285Z,14.40
2017-09-07T04:26:39.993Z,14.40
2017-09-07T04:29:07.664Z,14.60
2017-09-07T04:31:35.383Z,14.50
2017-09-07T04:34:03.060Z,14.40
2017-09-07T04:36:31.557Z,14.30
2017-09-07T04:38:59.229Z,14.30
2017-09-07T04:41:26.948Z,14.40
2017-09-07T04:43:54.599Z,14.40
2017-09-07T04:46:22.308Z,14.30
2017-09-07T04:48:49.973Z,14.40
2017-09-07T04:51:17.698Z,14.40
2017-09-07T04:53:46.145Z,14.30
2017-09-07T04:56:13.871Z,14.30
2017-09-07T04:58:41.577Z,14.40
2017-09-07T05:01:09.299Z,14.40
2017-09-07T05:03:36.963Z,14.50
2017-09-07T05:06:04.710Z,14.50
2017-09-07T05:08:32.381Z,14.50
2017-09-07T05:11:00.084Z,14.40
2017-09-07T05:13:27.752Z,14.30
2017-09-07T05:15:55.472Z,14.30
2017-09-07T05:18:23.131Z,14.20
2017-09-07T05:20:50.848Z,14.20
2017-09-07T05:23:19.339Z,14.40
2017-09-07T05:25:47.000Z,14.40
2017-09-07T05:28:14.731Z,14.40
2017-09-07T05:30:43.163Z,14.50
2017-09-07T05:33:10.867Z,14.40
2017-09-07T05:35:38.533Z,14.50
2017-09-07T05:38:07.011Z,14.60
2017-09-07T05:40:35.445Z,14.50
2017-09-07T05:43:03.149Z,14.40
2017-09-07T05:45:31.617Z,14.40
2017-09-07T05:47:59.341Z,14.40
2017-09-07T05:50:27.009Z,14.50
2017-09-07T05:52:54.719Z,14.70
2017-09-07T05:55:23.179Z,14.60
2017-09-07T05:57:50.896Z,14.60
2017-09-07T06:00:18.560Z,14.60
2017-09-07T06:02:46.264Z,14.70
2017-09-07T06:05:14.706Z,14.70
2017-09-07T06:07:42.406Z,14.70
2017-09-07T06:10:10.836Z,14.60
2017-09-07T06:12:38.540Z,14.60
2017-09-07T06:15:06.228Z,14.80
2017-09-07T06:17:33.967Z,14.80
2017-09-07T06:20:02.399Z,14.90
2017-09-07T06:22:30.060Z,14.90
2017-09-07T06:24:57.792Z,14.90
2017-09-07T06:27:25.459Z,15.00
2017-09-07T06:29:53.177Z,15.00
2017-09-07T06:32:21.610Z,15.10
2017-09-07T06:34:49.333Z,15.10
2017-09-07T06:37:17.767Z,15.30
2017-09-07T06:39:45.479Z,15.30
2017-09-07T06:42:13.143Z,15.40
2017-09-07T06:44:40.863Z,15.40
2017-09-07T06:47:08.535Z,15.60
2017-09-07T06:49:36.239Z,15.60
2017-09-07T06:52:03.901Z,15.70
2017-09-07T06:54:31.606Z,15.90
2017-09-07T06:57:00.043Z,16.00
2017-09-07T06:59:27.750Z,16.00
2017-09-07T07:01:56.216Z,16.10
2017-09-07T07:04:23.924Z,16.10
2017-09-07T07:06:51.596Z,16.20
2017-09-07T07:09:19.300Z,16.30
2017-09-07T07:11:46.972Z,16.40
2017-09-07T07:14:15.447Z,16.60
2017-09-07T07:16:43.877Z,16.70
2017-09-07T07:19:11.601Z,16.70
2017-09-07T07:21:40.021Z,16.70
2017-09-07T07:24:07.676Z,16.60
2017-09-07T07:26:35.391Z,16.90
2017-09-07T07:29:03.820Z,17.10
2017-09-07T07:31:31.527Z,17.10
2017-09-07T07:33:59.976Z,17.00
2017-09-07T07:36:27.679Z,17.00
2017-09-07T07:38:55.339Z,17.20
2017-09-07T07:41:23.045Z,17.10
2017-09-07T07:43:50.726Z,17.20
2017-09-07T07:46:18.444Z,17.10
2017-09-07T07:48:46.104Z,17.20
2017-09-07T07:51:13.810Z,17.20
2017-09-07T07:53:41.479Z,17.40
2017-09-07T07:56:09.969Z,17.50
2017-09-07T07:58:38.401Z,17.40
2017-09-07T08:01:06.911Z,17.60
2017-09-07T08:03:35.335Z,17.60
2017-09-07T08:06:03.047Z,17.50
2017-09-07T08:08:31.475Z,17.70
2017-09-07T08:10:59.189Z,17.70
2017-09-07T08:13:27.623Z,17.70
2017-09-07T08:15:55.333Z,17.70
2017-09-07T08:18:23.763Z,17.80
2017-09-07T08:20:51.519Z,17.80
2017-09-07T08:23:19.183Z,18.00
2017-09-07T08:25:46.852Z,18.10
2017-09-07T08:28:14.559Z,18.00
2017-09-07T08:30:42.255Z,18.10
2017-09-07T08:33:09.982Z,18.20
2017-09-07T08:35:37.720Z,18.30
2017-09-07T08:38:06.208Z,18.40
2017-09-07T08:40:33.875Z,18.40
2017-09-07T08:43:02.343Z,18.30
2017-09-07T08:45:30.771Z,18.40
2017-09-07T08:47:58.484Z,18.40
2017-09-07T08:50:26.912Z,18.50
2017-09-07T08:52:54.619Z,18.50
2017-09-07T08:55:23.057Z,19.00
2017-09-07T08:57:50.763Z,19.00
2017-09-07T09:00:18.427Z,19.00
2017-09-07T09:02:46.176Z,19.10
2017-09-07T09:05:13.852Z,19.10
2017-09-07T09:07:41.552Z,19.20
2017-09-07T09:10:09.218Z,19.30
2017-09-07T09:12:36.927Z,19.50
2017-09-07T09:15:04.613Z,19.70
2017-09-07T09:17:32.367Z,19.80
2017-09-07T09:20:00.028Z,19.70
2017-09-07T09:22:27.696Z,19.50
2017-09-07T09:24:55.404Z,19.70
2017-09-07T09:27:23.059Z,20.00
2017-09-07T09:29:50.764Z,20.10
2017-09-07T09:32:18.441Z,20.30
2017-09-07T09:34:46.144Z,20.70
2017-09-07T09:37:13.822Z,20.70
2017-09-07T09:39:42.292Z,21.50
2017-09-07T09:42:10.735Z,21.60
2017-09-07T09:44:38.440Z,21.60
2017-09-07T09:47:06.111Z,21.80
2017-09-07T09:49:33.819Z,21.30
2017-09-07T09:52:01.488Z,20.70
2017-09-07T09:54:29.194Z,20.40
2017-09-07T09:56:56.859Z,20.50
2017-09-07T09:59:24.576Z,20.60
2017-09-07T10:01:52.244Z,20.30
2017-09-07T10:04:20.728Z,20.80
2017-09-07T10:06:49.164Z,21.10
2017-09-07T10:09:16.875Z,21.10
2017-09-07T10:11:44.546Z,21.30
2017-09-07T10:14:12.271Z,21.50
2017-09-07T10:16:39.939Z,21.50
2017-09-07T10:19:08.413Z,22.10
2017-09-07T10:21:36.161Z,22.00
2017-09-07T10:24:03.840Z,21.90
2017-09-07T10:26:32.324Z,21.70
2017-09-07T10:28:59.993Z,21.70
2017-09-07T10:31:28.463Z,21.80
2017-09-07T10:33:56.901Z,21.90
2017-09-07T10:36:24.617Z,21.90
2017-09-07T10:38:52.279Z,21.90
2017-09-07T10:41:19.985Z,22.10
2017-09-07T10:43:47.650Z,21.90
2017-09-07T10:46:15.418Z,21.50
2017-09-07T10:48:43.086Z,21.20
2017-09-07T10:51:10.789Z,20.40
2017-09-07T10:53:38.531Z,19.70
2017-09-07T10:56:07.015Z,19.50
2017-09-07T10:58:34.742Z,19.50
2017-09-07T11:01:02.461Z,19.50
2017-09-07T11:03:30.138Z,19.30
2017-09-07T11:05:58.148Z,19.40
2017-09-07T11:08:26.588Z,19.80
2017-09-07T11:10:54.307Z,19.80
2017-09-07T11:13:21.981Z,19.70
2017-09-07T11:15:49.716Z,19.60
2017-09-07T11:18:17.387Z,19.20
2017-09-07T11:20:45.048Z,19.30
2017-09-07T11:23:12.759Z,19.40
2017-09-07T11:25:40.428Z,19.50
2017-09-07T11:28:08.132Z,19.50
2017-09-07T11:30:35.803Z,19.70
2017-09-07T11:33:03.512Z,19.90
2017-09-07T11:35:31.185Z,19.80
2017-09-07T11:37:59.660Z,19.30
2017-09-07T11:40:28.092Z,19.30
2017-09-07T11:42:55.800Z,19.30
2017-09-07T11:45:24.232Z,20.20
2017-09-07T11:47:51.945Z,20.10
2017-09-07T11:50:19.608Z,20.70
2017-09-07T11:52:47.320Z,21.20
2017-09-07T11:55:14.988Z,21.60
2017-09-07T11:57:42.696Z,21.60
2017-09-07T12:00:10.363Z,21.30
2017-09-07T12:02:38.075Z,21.00
2017-09-07T12:05:05.868Z,21.20
2017-09-07T12:07:34.339Z,21.80
2017-09-07T12:10:02.020Z,21.80
2017-09-07T12:12:29.743Z,21.90
2017-09-07T12:14:57.418Z,21.90
2017-09-07T12:17:25.907Z,21.40
2017-09-07T12:19:53.565Z,21.40
2017-09-07T12:22:21.228Z,20.90
2017-09-07T12:24:48.936Z,20.40
2017-09-07T12:27:16.607Z,20.20
2017-09-07T12:29:44.320Z,20.00
2017-09-07T12:32:11.980Z,19.90
2017-09-07T12:34:39.696Z,19.70
2017-09-07T12:37:07.359Z,19.80
2017-09-07T12:39:35.069Z,19.90
2017-09-07T12:42:02.735Z,20.00
2017-09-07T12:44:30.444Z,20.40
2017-09-07T12:46:58.117Z,20.80
2017-09-07T12:49:26.596Z,20.70
2017-09-07T12:51:54.257Z,20.70
2017-09-07T12:54:21.963Z,21.20
2017-09-07T12:56:49.632Z,21.20
2017-09-07T12:59:17.344Z,20.80
2017-09-07T13:01:45.004Z,20.60
2017-09-07T13:04:13.472Z,19.90
2017-09-07T13:06:41.135Z,19.90
2017-09-07T13:09:09.612Z,19.60
2017-09-07T13:11:37.269Z,19.60
2017-09-07T13:14:05.747Z,19.80
2017-09-07T13:16:34.176Z,19.70
2017-09-07T13:19:01.900Z,19.60
2017-09-07T13:21:29.563Z,19.60
2017-09-07T13:23:57.225Z,19.90
2017-09-07T13:26:24.929Z,20.60
2017-09-07T13:28:52.591Z,20.70
2017-09-07T13:31:20.312Z,20.40
2017-09-07T13:33:47.992Z,20.40
2017-09-07T13:36:15.697Z,20.60
2017-09-07T13:38:44.119Z,21.00
2017-09-07T13:41:11.831Z,21.00
2017-09-07T13:43:39.493Z,20.40
2017-09-07T13:46:07.969Z,20.50
2017-09-07T13:48:35.705Z,20.50
2017-09-07T13:51:03.417Z,20.80
2017-09-07T13:53:31.077Z,21.20
2017-09-07T13:56:01.436Z,22.20
2017-09-07T13:58:29.100Z,22.20
2017-09-07T14:00:56.824Z,22.40
2017-09-07T14:03:24.489Z,22.30
2017-09-07T14:05:52.191Z,22.00
2017-09-07T14:08:19.917Z,21.80
2017-09-07T14:10:47.628Z,21.90
2017-09-07T14:13:15.295Z,22.20
2017-09-07T14:15:43.775Z,22.10
2017-09-07T14:18:12.228Z,22.00
2017-09-07T14:20:39.959Z,22.00
2017-09-07T14:23:07.627Z,21.90
2017-09-07T14:25:35.283Z,21.70
2017-09-07T14:28:02.987Z,21.80
2017-09-07T14:30:30.659Z,21.70
2017-09-07T14:32:58.367Z,21.40
2017-09-07T14:35:26.028Z,21.60
2017-09-07T14:37:53.744Z,21.80
2017-09-07T14:40:21.411Z,21.90
2017-09-07T14:42:49.119Z,22.10
2017-09-07T14:45:16.796Z,22.00
2017-09-07T14:47:44.500Z,22.00
2017-09-07T14:50:12.172Z,22.00
2017-09-07T14:52:39.879Z,22.10
2017-09-07T14:55:07.549Z,21.50
2017-09-07T14:57:36.068Z,20.60
2017-09-07T15:00:03.767Z,20.60
2017-09-07T15:02:31.475Z,20.50
2017-09-07T15:04:59.150Z,20.30
2017-09-07T15:07:26.868Z,20.10
2017-09-07T15:09:55.319Z,20.20
2017-09-07T15:12:23.027Z,20.10
2017-09-07T15:14:50.683Z,20.10
2017-09-07T15:17:19.185Z,20.40
2017-09-07T15:19:46.856Z,20.40
2017-09-07T15:22:14.524Z,20.50
2017-09-07T15:24:42.228Z,20.30
2017-09-07T15:27:10.677Z,20.70
2017-09-07T15:29:38.379Z,20.70
2017-09-07T15:32:06.809Z,20.70
2017-09-07T15:34:34.520Z,20.70
2017-09-07T15:37:02.179Z,20.60
2017-09-07T15:39:29.885Z,20.50
2017-09-07T15:41:57.544Z,20.50
2017-09-07T15:44:25.248Z,20.60
2017-09-07T15:46:53.688Z,20.50
2017-09-07T15:49:21.396Z,20.50
2017-09-07T15:51:49.057Z,20.50
2017-09-07T15:54:17.522Z,20.20
2017-09-07T15:56:45.183Z,20.20
2017-09-07T15:59:12.888Z,20.20
2017-09-07T16:01:40.670Z,20.20
2017-09-07T16:04:08.371Z,20.20
2017-09-07T16:06:36.801Z,20.30
2017-09-07T16:09:04.578Z,20.30
2017-09-07T16:11:32.262Z,20.40
2017-09-07T16:14:00.753Z,20.30
2017-09-07T16:16:29.184Z,20.30
2017-09-07T16:18:56.848Z,20.30
2017-09-07T16:21:24.600Z,20.30
2017-09-07T16:23:52.264Z,20.10
2017-09-07T16:26:20.738Z,20.00
2017-09-07T16:28:48.407Z,19.90
2017-09-07T16:31:16.112Z,19.90
2017-09-07T16:33:43.808Z,19.90
2017-09-07T16:36:11.520Z,19.80
2017-09-07T16:38:39.942Z,19.70
2017-09-07T16:41:07.653Z,19.60
2017-09-07T16:43:36.083Z,19.60
2017-09-07T16:46:03.787Z,19.60
2017-09-07T16:48:32.224Z,19.60
2017-09-07T16:50:59.968Z,19.50
2017-09-07T16:53:27.632Z,19.50
2017-09-07T16:55:55.352Z,19.50
2017-09-07T16:58:23.780Z,19.40
2017-09-07T17:00:51.489Z,19.40
2017-09-07T17:03:19.931Z,19.40
2017-09-07T17:05:47.640Z,19.40
2017-09-07T17:08:15.320Z,19.40
2017-09-07T17:10:43.028Z,19.40
2017-09-07T17:13:10.695Z,19.40
2017-09-07T17:15:38.539Z,19.40
2017-09-07T17:18:06.199Z,19.20
2017-09-07T17:20:33.880Z,19.10
2017-09-07T17:23:02.360Z,18.80
2017-09-07T17:25:30.040Z,18.80
2017-09-07T17:27:58.511Z,18.60
2017-09-07T17:30:26.199Z,18.60
2017-09-07T17:32:53.907Z,18.50
2017-09-07T17:35:21.568Z,18.30
2017-09-07T17:37:49.268Z,18.30
2017-09-07T17:40:16.938Z,18.30
2017-09-07T17:42:44.650Z,18.30
2017-09-07T17:45:12.312Z,18.40
2017-09-07T17:47:40.020Z,18.50
2017-09-07T17:50:07.711Z,18.40
2017-09-07T17:52:35.420Z,18.30
2017-09-07T17:55:03.097Z,18.20
2017-09-07T17:57:30.809Z,18.10
2017-09-07T17:59:58.480Z,18.10
2017-09-07T18:02:26.960Z,18.00
2017-09-07T18:04:55.396Z,18.00
2017-09-07T18:07:23.111Z,18.00
2017-09-07T18:09:50.775Z,18.10
2017-09-07T18:12:18.502Z,17.90
2017-09-07T18:14:46.164Z,18.00
2017-09-07T18:17:13.822Z,18.00
2017-09-07T18:19:41.531Z,17.90
2017-09-07T18:22:09.211Z,17.90
2017-09-07T18:24:36.911Z,17.80
2017-09-07T18:27:05.349Z,17.70
2017-09-07T18:29:33.056Z,17.60
2017-09-07T18:32:01.489Z,17.70
2017-09-07T18:34:29.195Z,17.70
2017-09-07T18:36:57.627Z,17.70
2017-09-07T18:39:25.332Z,17.70
2017-09-07T18:41:53.764Z,17.60
2017-09-07T18:44:21.482Z,17.60
2017-09-07T18:46:49.908Z,17.50
2017-09-07T18:49:18.379Z,17.40
2017-09-07T18:51:46.071Z,17.40
2017-09-07T18:54:13.775Z,17.40
2017-09-07T18:56:41.439Z,17.40
2017-09-07T18:59:09.156Z,17.40
2017-09-07T19:01:36.823Z,17.50
2017-09-07T19:04:05.302Z,17.50
2017-09-07T19:06:33.734Z,17.40
2017-09-07T19:09:01.460Z,17.40
2017-09-07T19:11:29.155Z,17.50
2017-09-07T19:13:56.830Z,17.50
2017-09-07T19:16:24.531Z,17.50
2017-09-07T19:18:52.196Z,17.60
2017-09-07T19:21:20.664Z,17.60
2017-09-07T19:23:49.091Z,17.50
2017-09-07T19:26:16.799Z,17.50
2017-09-07T19:28:45.235Z,17.60
2017-09-07T19:31:12.953Z,17.50
2017-09-07T19:33:40.626Z,17.50
2017-09-07T19:36:08.340Z,17.40
2017-09-07T19:38:36.000Z,17.40
2017-09-07T19:41:03.713Z,17.30
2017-09-07T19:43:31.384Z,17.30
2017-09-07T19:45:59.095Z,17.20
2017-09-07T19:48:27.533Z,17.30
2017-09-07T19:50:55.244Z,17.30
2017-09-07T19:53:22.929Z,17.20
2017-09-07T19:55:50.657Z,17.30
2017-09-07T19:58:19.130Z,17.20
2017-09-07T20:00:47.642Z,17.10
2017-09-07T20:03:15.305Z,17.10
2017-09-07T20:05:43.012Z,17.10
2017-09-07T20:08:10.723Z,17.00
2017-09-07T20:10:38.640Z,17.00
2017-09-07T20:13:06.315Z,17.00
2017-09-07T20:15:34.743Z,17.20
2017-09-07T20:18:02.453Z,17.20
2017-09-07T20:20:30.887Z,17.20
2017-09-07T20:22:58.587Z,17.20
2017-09-07T20:25:27.020Z,17.30
2017-09-07T20:27:54.728Z,17.30
2017-09-07T20:30:23.160Z,17.30
2017-09-07T20:32:50.875Z,17.30
2017-09-07T20:35:18.540Z,17.40
2017-09-07T20:37:46.246Z,17.50
2017-09-07T20:40:13.924Z,17.30
2017-09-07T20:42:41.628Z,17.40
2017-09-07T20:45:09.300Z,17.40
2017-09-07T20:47:37.000Z,17.40
2017-09-07T20:50:04.678Z,17.50
2017-09-07T20:52:33.155Z,17.60
2017-09-07T20:55:01.587Z,17.60
2017-09-07T20:57:29.293Z,17.60
2017-09-07T20:59:56.996Z,17.60
2017-09-07T21:02:24.705Z,17.60
2017-09-07T21:04:52.384Z,17.50
2017-09-07T21:07:20.881Z,17.70
2017-09-07T21:09:48.543Z,17.70
2017-09-07T21:12:16.203Z,17.50
2017-09-07T21:14:43.907Z,17.50
2017-09-07T21:17:11.580Z,17.60
2017-09-07T21:19:39.288Z,17.50
2017-09-07T21:22:07.000Z,17.40
2017-09-07T21:24:34.703Z,17.50
2017-09-07T21:27:02.364Z,17.60
2017-09-07T21:29:30.364Z,17.50
2017-09-07T21:31:58.151Z,17.40
2017-09-07T21:34:25.864Z,17.30
2017-09-07T21:36:53.598Z,17.20
2017-09-07T21:39:22.072Z,17.30
2017-09-07T21:41:50.499Z,17.30
2017-09-07T21:44:18.208Z,17.30
2017-09-07T21:46:46.752Z,17.20
2017-09-07T21:49:14.455Z,17.20
2017-09-07T21:51:42.875Z,17.10
2017-09-07T21:54:10.589Z,17.20
2017-09-07T21:56:39.028Z,17.00
2017-09-07T21:59:06.732Z,17.00
2017-09-07T22:01:34.398Z,16.90
2017-09-07T22:04:02.106Z,17.10
2017-09-07T22:06:29.771Z,17.00
2017-09-07T22:08:57.479Z,17.00
2017-09-07T22:11:25.143Z,17.00
2017-09-07T22:13:52.866Z,17.00
2017-09-07T22:16:20.527Z,17.00
2017-09-07T22:18:48.195Z,16.90
2017-09-07T22:21:16.685Z,16.90
2017-09-07T22:23:45.116Z,16.90
2017-09-07T22:26:12.828Z,16.90
2017-09-07T22:28:41.259Z,17.10
2017-09-07T22:31:08.965Z,17.10
2017-09-07T22:33:36.623Z,17.00
2017-09-07T22:36:05.093Z,16.90
2017-09-07T22:38:33.520Z,16.80
2017-09-07T22:41:01.232Z,16.80
2017-09-07T22:43:29.676Z,16.80
2017-09-07T22:45:57.380Z,16.80
2017-09-07T22:48:25.068Z,16.80
2017-09-07T22:50:52.816Z,16.80
2017-09-07T22:53:20.480Z,16.70
2017-09-07T22:55:48.240Z,16.80
2017-09-07T22:58:15.908Z,16.80
2017-09-07T23:00:43.622Z,16.80
2017-09-07T23:03:12.055Z,16.70
2017-09-07T23:05:39.777Z,16.60
2017-09-07T23:08:07.440Z,16.60
2017-09-07T23:10:35.869Z,16.60
2017-09-07T23:13:03.619Z,16.60
2017-09-07T23:15:31.293Z,16.60
2017-09-07T23:17:59.813Z,16.70
2017-09-07T23:20:27.467Z,16.60
2017-09-07T23:22:55.941Z,16.80
2017-09-07T23:25:24.368Z,16.80
2017-09-07T23:27:52.095Z,16.80
2017-09-07T23:30:19.782Z,16.80
2017-09-07T23:32:47.492Z,16.70
2017-09-07T23:35:15.919Z,16.80
2017-09-07T23:37:43.632Z,16.80
2017-09-07T23:40:11.296Z,16.80
2017-09-07T23:42:39.770Z,16.70
2017-09-07T23:45:07.442Z,16.70
2017-09-07T23:47:35.916Z,16.60
2017-09-07T23:50:03.584Z,16.60
2017-09-07T23:52:31.288Z,16.60
2017-09-07T23:54:58.947Z,16.60
2017-09-07T23:57:26.652Z,16.60
2017-09-07T23:59:55.083Z,16.60
